sensor_id;sensor_type;location;lat;lon;timestamp;temperature;humidity
24382;DHT22;12502;50.678;7.172;2023-04-15T00:03:12;5.60;99.90
24382;DHT22;12502;50.678;7.172;2023-04-15T00:08:14;5.70;99.90
24382;DHT22;12502;50.678;7.172;2023-04-15T00:13:16;5.50;99.90
24382;DHT22;12502;50.678;7.172;2023-04-15T00:18:19;5.40;99.90
24382;DHT22;12502;50.678;7.172;2023-04-15T00:23:20;5.40;99.90
24382;DHT22;12502;50.678;7.172;2023-04-15T00:28:22;5.30;99.90
24382;DHT22;12502;50.678;7.172;2023-04-15T00:33:24;5.40;99.90
24382;DHT22;12502;50.678;7.172;2023-04-15T00:38:25;5.40;99.90
24382;DHT22;12502;50.678;7.172;2023-04-15T00:43:27;5.50;99.90
24382;DHT22;12502;50.678;7.172;2023-04-15T00:48:30;5.40;99.90
24382;DHT22;12502;50.678;7.172;2023-04-15T00:53:32;5.20;99.90
24382;DHT22;12502;50.678;7.172;2023-04-15T00:58:33;5.20;99.90
24382;DHT22;12502;50.678;7.172;2023-04-15T01:03:35;5.00;99.90
24382;DHT22;12502;50.678;7.172;2023-04-15T01:08:37;5.00;99.90
24382;DHT22;12502;50.678;7.172;2023-04-15T01:13:38;4.70;99.90
24382;DHT22;12502;50.678;7.172;2023-04-15T01:18:40;5.00;99.90
24382;DHT22;12502;50.678;7.172;2023-04-15T01:23:42;5.00;99.90
24382;DHT22;12502;50.678;7.172;2023-04-15T01:28:45;5.00;99.90
24382;DHT22;12502;50.678;7.172;2023-04-15T01:33:47;4.80;99.90
24382;DHT22;12502;50.678;7.172;2023-04-15T01:38:49;4.70;99.90
24382;DHT22;12502;50.678;7.172;2023-04-15T01:43:51;4.50;99.90
24382;DHT22;12502;50.678;7.172;2023-04-15T01:48:53;4.50;99.90
24382;DHT22;12502;50.678;7.172;2023-04-15T01:53:54;4.40;99.90
24382;DHT22;12502;50.678;7.172;2023-04-15T01:58:57;4.40;99.90
24382;DHT22;12502;50.678;7.172;2023-04-15T02:03:59;4.30;99.90
24382;DHT22;12502;50.678;7.172;2023-04-15T02:09:01;4.40;99.90
24382;DHT22;12502;50.678;7.172;2023-04-15T02:14:04;4.30;99.90
24382;DHT22;12502;50.678;7.172;2023-04-15T02:19:06;4.30;99.90
24382;DHT22;12502;50.678;7.172;2023-04-15T02:24:09;4.50;99.90
24382;DHT22;12502;50.678;7.172;2023-04-15T02:29:12;4.30;99.90
24382;DHT22;12502;50.678;7.172;2023-04-15T02:34:14;4.20;99.90
24382;DHT22;12502;50.678;7.172;2023-04-15T02:39:15;4.20;99.90
24382;DHT22;12502;50.678;7.172;2023-04-15T02:44:19;4.30;99.90
24382;DHT22;12502;50.678;7.172;2023-04-15T02:49:20;4.40;99.90
24382;DHT22;12502;50.678;7.172;2023-04-15T02:54:23;4.40;99.90
24382;DHT22;12502;50.678;7.172;2023-04-15T02:59:25;4.50;99.90
24382;DHT22;12502;50.678;7.172;2023-04-15T03:04:26;4.50;99.90
24382;DHT22;12502;50.678;7.172;2023-04-15T03:09:30;4.40;99.90
24382;DHT22;12502;50.678;7.172;2023-04-15T03:14:34;4.50;99.90
24382;DHT22;12502;50.678;7.172;2023-04-15T03:19:36;4.50;99.90
24382;DHT22;12502;50.678;7.172;2023-04-15T03:24:37;4.40;99.90
24382;DHT22;12502;50.678;7.172;2023-04-15T03:29:39;4.40;99.90
24382;DHT22;12502;50.678;7.172;2023-04-15T03:34:40;4.40;99.90
24382;DHT22;12502;50.678;7.172;2023-04-15T03:39:42;4.30;99.90
24382;DHT22;12502;50.678;7.172;2023-04-15T03:44:44;4.30;99.90
24382;DHT22;12502;50.678;7.172;2023-04-15T03:49:45;4.30;99.90
24382;DHT22;12502;50.678;7.172;2023-04-15T03:54:47;4.30;99.90
24382;DHT22;12502;50.678;7.172;2023-04-15T03:59:49;4.00;99.90
24382;DHT22;12502;50.678;7.172;2023-04-15T04:04:50;4.00;99.90
24382;DHT22;12502;50.678;7.172;2023-04-15T04:09:52;4.10;99.90
24382;DHT22;12502;50.678;7.172;2023-04-15T04:14:54;3.90;99.90
24382;DHT22;12502;50.678;7.172;2023-04-15T04:19:55;4.00;99.90
24382;DHT22;12502;50.678;7.172;2023-04-15T04:24:57;3.70;99.90
24382;DHT22;12502;50.678;7.172;2023-04-15T04:30:00;3.90;99.90
24382;DHT22;12502;50.678;7.172;2023-04-15T04:35:02;3.90;99.90
24382;DHT22;12502;50.678;7.172;2023-04-15T04:40:04;3.50;99.90
24382;DHT22;12502;50.678;7.172;2023-04-15T04:45:06;3.50;99.90
24382;DHT22;12502;50.678;7.172;2023-04-15T04:50:09;3.70;99.90
24382;DHT22;12502;50.678;7.172;2023-04-15T04:55:11;3.60;99.90
24382;DHT22;12502;50.678;7.172;2023-04-15T05:00:12;3.60;99.90
24382;DHT22;12502;50.678;7.172;2023-04-15T05:05:15;3.30;99.90
24382;DHT22;12502;50.678;7.172;2023-04-15T05:10:16;3.40;99.90
24382;DHT22;12502;50.678;7.172;2023-04-15T05:15:18;3.40;99.90
24382;DHT22;12502;50.678;7.172;2023-04-15T05:20:20;3.40;99.90
24382;DHT22;12502;50.678;7.172;2023-04-15T05:25:22;3.40;99.90
24382;DHT22;12502;50.678;7.172;2023-04-15T05:30:23;3.60;99.90
24382;DHT22;12502;50.678;7.172;2023-04-15T05:35:25;3.70;99.90
24382;DHT22;12502;50.678;7.172;2023-04-15T05:40:27;3.80;99.90
24382;DHT22;12502;50.678;7.172;2023-04-15T05:45:29;4.00;99.90
24382;DHT22;12502;50.678;7.172;2023-04-15T05:50:30;4.20;99.90
24382;DHT22;12502;50.678;7.172;2023-04-15T05:55:32;4.30;99.90
24382;DHT22;12502;50.678;7.172;2023-04-15T06:00:33;4.60;99.90
24382;DHT22;12502;50.678;7.172;2023-04-15T06:05:35;4.80;99.90
24382;DHT22;12502;50.678;7.172;2023-04-15T06:10:37;4.90;99.90
24382;DHT22;12502;50.678;7.172;2023-04-15T06:15:38;5.00;99.90
24382;DHT22;12502;50.678;7.172;2023-04-15T06:32:03;5.40;99.90
24382;DHT22;12502;50.678;7.172;2023-04-15T06:37:05;5.60;99.90
24382;DHT22;12502;50.678;7.172;2023-04-15T06:42:07;5.70;99.90
24382;DHT22;12502;50.678;7.172;2023-04-15T06:47:09;5.90;99.90
24382;DHT22;12502;50.678;7.172;2023-04-15T06:52:13;6.20;99.90
24382;DHT22;12502;50.678;7.172;2023-04-15T06:57:15;6.70;99.90
24382;DHT22;12502;50.678;7.172;2023-04-15T07:02:16;7.00;99.90
24382;DHT22;12502;50.678;7.172;2023-04-15T07:07:19;7.40;99.90
24382;DHT22;12502;50.678;7.172;2023-04-15T07:12:21;7.70;99.90
24382;DHT22;12502;50.678;7.172;2023-04-15T07:17:22;8.00;99.90
24382;DHT22;12502;50.678;7.172;2023-04-15T07:22:24;8.30;99.90
24382;DHT22;12502;50.678;7.172;2023-04-15T07:27:26;8.60;99.90
24382;DHT22;12502;50.678;7.172;2023-04-15T07:32:28;8.80;99.90
24382;DHT22;12502;50.678;7.172;2023-04-15T07:37:29;9.10;99.90
24382;DHT22;12502;50.678;7.172;2023-04-15T07:42:32;9.10;99.90
24382;DHT22;12502;50.678;7.172;2023-04-15T07:47:34;9.60;99.90
24382;DHT22;12502;50.678;7.172;2023-04-15T07:52:36;9.80;99.90
24382;DHT22;12502;50.678;7.172;2023-04-15T07:57:41;10.00;99.90
24382;DHT22;12502;50.678;7.172;2023-04-15T08:02:43;10.40;99.90
24382;DHT22;12502;50.678;7.172;2023-04-15T08:07:45;10.40;99.90
24382;DHT22;12502;50.678;7.172;2023-04-15T08:12:47;10.80;99.90
24382;DHT22;12502;50.678;7.172;2023-04-15T08:17:49;10.80;99.90
24382;DHT22;12502;50.678;7.172;2023-04-15T08:22:51;11.10;99.90
24382;DHT22;12502;50.678;7.172;2023-04-15T08:27:55;11.10;99.90
24382;DHT22;12502;50.678;7.172;2023-04-15T08:32:57;11.10;99.90
24382;DHT22;12502;50.678;7.172;2023-04-15T08:37:59;11.10;99.90
24382;DHT22;12502;50.678;7.172;2023-04-15T08:43:01;11.50;99.90
24382;DHT22;12502;50.678;7.172;2023-04-15T08:48:04;11.60;99.90
24382;DHT22;12502;50.678;7.172;2023-04-15T08:53:07;11.70;99.90
24382;DHT22;12502;50.678;7.172;2023-04-15T08:58:10;11.50;99.90
24382;DHT22;12502;50.678;7.172;2023-04-15T09:03:12;11.80;99.90
24382;DHT22;12502;50.678;7.172;2023-04-15T09:08:14;12.10;99.90
24382;DHT22;12502;50.678;7.172;2023-04-15T09:13:16;12.50;99.90
24382;DHT22;12502;50.678;7.172;2023-04-15T09:18:28;12.70;99.90
24382;DHT22;12502;50.678;7.172;2023-04-15T09:23:31;12.80;99.90
24382;DHT22;12502;50.678;7.172;2023-04-15T09:28:33;13.00;99.90
24382;DHT22;12502;50.678;7.172;2023-04-15T09:33:52;13.20;99.90
24382;DHT22;12502;50.678;7.172;2023-04-15T09:38:55;13.00;99.90
24382;DHT22;12502;50.678;7.172;2023-04-15T09:43:58;13.10;99.90
24382;DHT22;12502;50.678;7.172;2023-04-15T09:49:07;13.30;99.20
24382;DHT22;12502;50.678;7.172;2023-04-15T09:54:09;13.20;99.70
24382;DHT22;12502;50.678;7.172;2023-04-15T09:59:10;13.40;96.50
24382;DHT22;12502;50.678;7.172;2023-04-15T10:04:12;13.20;96.60
24382;DHT22;12502;50.678;7.172;2023-04-15T10:09:14;13.90;97.30
24382;DHT22;12502;50.678;7.172;2023-04-15T10:14:16;14.10;96.80
24382;DHT22;12502;50.678;7.172;2023-04-15T10:19:19;14.60;96.60
24382;DHT22;12502;50.678;7.172;2023-04-15T10:24:24;14.40;95.10
24382;DHT22;12502;50.678;7.172;2023-04-15T10:29:26;14.50;94.60
24382;DHT22;12502;50.678;7.172;2023-04-15T10:34:30;14.40;95.10
24382;DHT22;12502;50.678;7.172;2023-04-15T10:44:35;14.40;96.30
24382;DHT22;12502;50.678;7.172;2023-04-15T10:49:48;14.40;96.60
24382;DHT22;12502;50.678;7.172;2023-04-15T10:55:15;14.80;96.90
24382;DHT22;12502;50.678;7.172;2023-04-15T11:00:14;14.80;97.00
24382;DHT22;12502;50.678;7.172;2023-04-15T11:05:16;15.30;94.30
24382;DHT22;12502;50.678;7.172;2023-04-15T11:15:36;14.90;95.50
24382;DHT22;12502;50.678;7.172;2023-04-15T11:20:41;14.70;96.70
24382;DHT22;12502;50.678;7.172;2023-04-15T11:25:43;14.70;99.00
24382;DHT22;12502;50.678;7.172;2023-04-15T11:30:45;14.10;99.90
24382;DHT22;12502;50.678;7.172;2023-04-15T11:35:47;14.10;99.90
24382;DHT22;12502;50.678;7.172;2023-04-15T11:40:49;14.10;99.90
24382;DHT22;12502;50.678;7.172;2023-04-15T11:45:52;13.70;99.90
24382;DHT22;12502;50.678;7.172;2023-04-15T11:50:55;13.60;99.90
24382;DHT22;12502;50.678;7.172;2023-04-15T11:55:57;13.40;99.90
24382;DHT22;12502;50.678;7.172;2023-04-15T12:00:59;13.40;99.90
24382;DHT22;12502;50.678;7.172;2023-04-15T12:11:03;13.10;99.90
24382;DHT22;12502;50.678;7.172;2023-04-15T12:16:05;13.30;99.90
24382;DHT22;12502;50.678;7.172;2023-04-15T12:21:08;13.40;99.90
24382;DHT22;12502;50.678;7.172;2023-04-15T12:26:10;13.20;99.90
24382;DHT22;12502;50.678;7.172;2023-04-15T12:31:11;13.00;99.90
24382;DHT22;12502;50.678;7.172;2023-04-15T12:36:14;12.80;99.90
24382;DHT22;12502;50.678;7.172;2023-04-15T12:41:17;12.50;99.90
24382;DHT22;12502;50.678;7.172;2023-04-15T12:46:18;12.40;99.90
24382;DHT22;12502;50.678;7.172;2023-04-15T12:51:20;12.50;99.90
24382;DHT22;12502;50.678;7.172;2023-04-15T12:56:22;12.50;99.90
24382;DHT22;12502;50.678;7.172;2023-04-15T13:01:24;12.30;99.90
24382;DHT22;12502;50.678;7.172;2023-04-15T13:06:26;12.20;99.90
24382;DHT22;12502;50.678;7.172;2023-04-15T13:11:27;12.20;99.90
24382;DHT22;12502;50.678;7.172;2023-04-15T13:16:32;12.10;99.90
24382;DHT22;12502;50.678;7.172;2023-04-15T13:21:34;12.20;99.90
24382;DHT22;12502;50.678;7.172;2023-04-15T13:26:37;12.30;99.90
24382;DHT22;12502;50.678;7.172;2023-04-15T13:31:38;12.40;99.90
24382;DHT22;12502;50.678;7.172;2023-04-15T13:36:40;12.30;99.90
24382;DHT22;12502;50.678;7.172;2023-04-15T13:41:42;12.10;99.90
24382;DHT22;12502;50.678;7.172;2023-04-15T13:46:43;12.00;99.90
24382;DHT22;12502;50.678;7.172;2023-04-15T13:51:45;12.00;99.90
24382;DHT22;12502;50.678;7.172;2023-04-15T13:56:47;11.90;99.90
24382;DHT22;12502;50.678;7.172;2023-04-15T14:01:48;11.70;99.90
24382;DHT22;12502;50.678;7.172;2023-04-15T14:06:50;11.80;99.90
24382;DHT22;12502;50.678;7.172;2023-04-15T14:11:52;11.60;99.90
24382;DHT22;12502;50.678;7.172;2023-04-15T14:16:54;11.60;99.90
24382;DHT22;12502;50.678;7.172;2023-04-15T14:21:57;11.50;99.90
24382;DHT22;12502;50.678;7.172;2023-04-15T14:26:59;11.60;99.90
24382;DHT22;12502;50.678;7.172;2023-04-15T14:32:02;11.80;99.90
24382;DHT22;12502;50.678;7.172;2023-04-15T14:37:12;11.80;99.90
24382;DHT22;12502;50.678;7.172;2023-04-15T14:42:14;11.50;99.90
24382;DHT22;12502;50.678;7.172;2023-04-15T14:47:16;11.30;99.90
24382;DHT22;12502;50.678;7.172;2023-04-15T14:52:17;11.10;99.90
24382;DHT22;12502;50.678;7.172;2023-04-15T14:57:19;11.10;99.90
24382;DHT22;12502;50.678;7.172;2023-04-15T15:02:21;11.10;99.90
24382;DHT22;12502;50.678;7.172;2023-04-15T15:07:38;11.00;99.90
24382;DHT22;12502;50.678;7.172;2023-04-15T15:12:41;11.00;99.90
24382;DHT22;12502;50.678;7.172;2023-04-15T15:17:42;10.90;99.90
24382;DHT22;12502;50.678;7.172;2023-04-15T15:22:44;10.70;99.90
24382;DHT22;12502;50.678;7.172;2023-04-15T15:27:46;10.80;99.90
24382;DHT22;12502;50.678;7.172;2023-04-15T15:32:48;10.60;99.90
24382;DHT22;12502;50.678;7.172;2023-04-15T15:37:49;10.50;99.90
24382;DHT22;12502;50.678;7.172;2023-04-15T15:42:51;10.40;99.90
24382;DHT22;12502;50.678;7.172;2023-04-15T15:47:53;10.40;99.90
24382;DHT22;12502;50.678;7.172;2023-04-15T15:52:55;10.60;99.90
24382;DHT22;12502;50.678;7.172;2023-04-15T15:57:56;10.50;99.90
24382;DHT22;12502;50.678;7.172;2023-04-15T16:02:58;10.10;99.90
24382;DHT22;12502;50.678;7.172;2023-04-15T16:08:06;10.30;99.90
24382;DHT22;12502;50.678;7.172;2023-04-15T16:13:08;10.30;99.90
24382;DHT22;12502;50.678;7.172;2023-04-15T16:18:11;10.20;99.90
24382;DHT22;12502;50.678;7.172;2023-04-15T16:23:13;10.10;99.90
24382;DHT22;12502;50.678;7.172;2023-04-15T16:28:15;10.10;99.90
24382;DHT22;12502;50.678;7.172;2023-04-15T16:33:27;10.00;99.90
24382;DHT22;12502;50.678;7.172;2023-04-15T16:38:29;10.10;99.90
24382;DHT22;12502;50.678;7.172;2023-04-15T16:43:30;10.00;99.90
24382;DHT22;12502;50.678;7.172;2023-04-15T16:48:32;9.90;99.90
24382;DHT22;12502;50.678;7.172;2023-04-15T16:53:34;9.80;99.90
24382;DHT22;12502;50.678;7.172;2023-04-15T16:58:35;9.60;99.90
24382;DHT22;12502;50.678;7.172;2023-04-15T17:03:39;9.50;99.90
24382;DHT22;12502;50.678;7.172;2023-04-15T17:08:42;9.50;99.90
24382;DHT22;12502;50.678;7.172;2023-04-15T17:13:44;9.50;99.90
24382;DHT22;12502;50.678;7.172;2023-04-15T17:18:45;9.50;99.90
24382;DHT22;12502;50.678;7.172;2023-04-15T17:23:47;9.50;99.90
24382;DHT22;12502;50.678;7.172;2023-04-15T17:28:50;9.50;99.90
24382;DHT22;12502;50.678;7.172;2023-04-15T17:33:52;9.50;99.90
24382;DHT22;12502;50.678;7.172;2023-04-15T17:39:09;9.50;99.90
24382;DHT22;12502;50.678;7.172;2023-04-15T17:44:12;9.40;99.90
24382;DHT22;12502;50.678;7.172;2023-04-15T17:49:13;9.30;99.90
24382;DHT22;12502;50.678;7.172;2023-04-15T17:54:15;9.30;99.90
24382;DHT22;12502;50.678;7.172;2023-04-15T17:59:17;9.30;99.90
24382;DHT22;12502;50.678;7.172;2023-04-15T18:04:20;9.20;99.90
24382;DHT22;12502;50.678;7.172;2023-04-15T18:09:24;9.30;99.90
24382;DHT22;12502;50.678;7.172;2023-04-15T18:14:27;9.30;99.90
24382;DHT22;12502;50.678;7.172;2023-04-15T18:19:35;9.50;99.90
24382;DHT22;12502;50.678;7.172;2023-04-15T18:24:37;9.40;99.90
24382;DHT22;12502;50.678;7.172;2023-04-15T18:29:39;9.30;99.90
24382;DHT22;12502;50.678;7.172;2023-04-15T18:34:44;9.30;99.90
24382;DHT22;12502;50.678;7.172;2023-04-15T18:39:46;9.20;99.90
24382;DHT22;12502;50.678;7.172;2023-04-15T18:44:48;9.30;99.90
24382;DHT22;12502;50.678;7.172;2023-04-15T18:49:51;9.20;99.90
24382;DHT22;12502;50.678;7.172;2023-04-15T18:54:53;9.10;99.90
24382;DHT22;12502;50.678;7.172;2023-04-15T18:59:55;8.80;99.90
24382;DHT22;12502;50.678;7.172;2023-04-15T19:04:57;9.00;99.90
24382;DHT22;12502;50.678;7.172;2023-04-15T19:09:58;8.90;99.90
24382;DHT22;12502;50.678;7.172;2023-04-15T19:15:01;8.80;99.90
24382;DHT22;12502;50.678;7.172;2023-04-15T19:20:02;8.90;99.90
24382;DHT22;12502;50.678;7.172;2023-04-15T19:25:04;8.80;99.90
24382;DHT22;12502;50.678;7.172;2023-04-15T19:30:06;8.70;99.90
24382;DHT22;12502;50.678;7.172;2023-04-15T19:35:08;8.70;99.90
24382;DHT22;12502;50.678;7.172;2023-04-15T19:40:12;8.70;99.90
24382;DHT22;12502;50.678;7.172;2023-04-15T19:45:16;8.60;99.90
24382;DHT22;12502;50.678;7.172;2023-04-15T19:50:18;8.50;99.90
24382;DHT22;12502;50.678;7.172;2023-04-15T19:55:25;8.50;99.90
24382;DHT22;12502;50.678;7.172;2023-04-15T20:00:33;8.60;99.90
24382;DHT22;12502;50.678;7.172;2023-04-15T20:05:35;8.60;99.90
24382;DHT22;12502;50.678;7.172;2023-04-15T20:10:37;8.70;99.90
24382;DHT22;12502;50.678;7.172;2023-04-15T20:15:39;8.70;99.90
24382;DHT22;12502;50.678;7.172;2023-04-15T20:20:41;8.70;99.90
24382;DHT22;12502;50.678;7.172;2023-04-15T20:25:42;8.70;99.90
24382;DHT22;12502;50.678;7.172;2023-04-15T20:30:44;8.60;99.90
24382;DHT22;12502;50.678;7.172;2023-04-15T20:35:46;8.70;99.90
24382;DHT22;12502;50.678;7.172;2023-04-15T20:40:48;8.70;99.90
24382;DHT22;12502;50.678;7.172;2023-04-15T20:45:50;8.60;99.90
24382;DHT22;12502;50.678;7.172;2023-04-15T20:50:58;8.50;99.90
24382;DHT22;12502;50.678;7.172;2023-04-15T20:56:00;8.50;99.90
24382;DHT22;12502;50.678;7.172;2023-04-15T21:01:02;8.40;99.90
24382;DHT22;12502;50.678;7.172;2023-04-15T21:06:05;8.50;99.90
24382;DHT22;12502;50.678;7.172;2023-04-15T21:11:08;8.50;99.90
24382;DHT22;12502;50.678;7.172;2023-04-15T21:16:12;8.50;99.90
24382;DHT22;12502;50.678;7.172;2023-04-15T21:21:14;8.40;99.90
24382;DHT22;12502;50.678;7.172;2023-04-15T21:26:20;8.40;99.90
24382;DHT22;12502;50.678;7.172;2023-04-15T21:31:22;8.40;99.90
24382;DHT22;12502;50.678;7.172;2023-04-15T21:36:24;8.40;99.90
24382;DHT22;12502;50.678;7.172;2023-04-15T21:41:26;8.40;99.90
24382;DHT22;12502;50.678;7.172;2023-04-15T21:46:28;8.40;99.90
24382;DHT22;12502;50.678;7.172;2023-04-15T21:51:35;8.40;99.90
24382;DHT22;12502;50.678;7.172;2023-04-15T21:56:37;8.40;99.90
24382;DHT22;12502;50.678;7.172;2023-04-15T22:01:40;8.30;99.90
24382;DHT22;12502;50.678;7.172;2023-04-15T22:06:43;8.20;99.90
24382;DHT22;12502;50.678;7.172;2023-04-15T22:11:45;8.20;99.90
24382;DHT22;12502;50.678;7.172;2023-04-15T22:16:47;8.20;99.90
24382;DHT22;12502;50.678;7.172;2023-04-15T22:21:49;8.20;99.90
24382;DHT22;12502;50.678;7.172;2023-04-15T22:26:55;8.20;99.90
24382;DHT22;12502;50.678;7.172;2023-04-15T22:31:59;8.20;99.90
24382;DHT22;12502;50.678;7.172;2023-04-15T22:37:03;8.20;99.90
24382;DHT22;12502;50.678;7.172;2023-04-15T22:42:04;8.20;99.90
24382;DHT22;12502;50.678;7.172;2023-04-15T22:47:10;8.20;99.90
24382;DHT22;12502;50.678;7.172;2023-04-15T22:52:12;8.20;99.90
24382;DHT22;12502;50.678;7.172;2023-04-15T22:57:28;8.20;99.90
24382;DHT22;12502;50.678;7.172;2023-04-15T23:02:32;8.20;99.90
24382;DHT22;12502;50.678;7.172;2023-04-15T23:07:37;8.20;99.90
24382;DHT22;12502;50.678;7.172;2023-04-15T23:12:46;8.10;99.90
24382;DHT22;12502;50.678;7.172;2023-04-15T23:17:52;8.10;99.90
24382;DHT22;12502;50.678;7.172;2023-04-15T23:23:01;8.10;99.90
24382;DHT22;12502;50.678;7.172;2023-04-15T23:28:06;8.10;99.90
24382;DHT22;12502;50.678;7.172;2023-04-15T23:33:09;8.10;99.90
24382;DHT22;12502;50.678;7.172;2023-04-15T23:38:13;8.10;99.90
24382;DHT22;12502;50.678;7.172;2023-04-15T23:43:18;8.00;99.90
24382;DHT22;12502;50.678;7.172;2023-04-15T23:48:19;8.10;99.90
24382;DHT22;12502;50.678;7.172;2023-04-15T23:53:26;8.00;99.90
24382;DHT22;12502;50.678;7.172;2023-04-15T23:58:32;8.10;99.90
